sensor_id;sensor_type;location;lat;lon;timestamp;pressure;altitude;pressure_sealevel;temperature;humidity
49377;BME280;35253;34.688;33.040;2023-03-15T00:00:00;100280.94;;;14.16;100.00
49377;BME280;35253;34.688;33.040;2023-03-15T00:02:26;100274.13;;;14.12;100.00
49377;BME280;35253;34.688;33.040;2023-03-15T00:04:51;100278.97;;;13.95;100.00
49377;BME280;35253;34.688;33.040;2023-03-15T00:07:19;100274.84;;;14.03;100.00
49377;BME280;35253;34.688;33.040;2023-03-15T00:09:50;100274.13;;;14.12;100.00
49377;BME280;35253;34.688;33.040;2023-03-15T00:12:15;100269.13;;;14.07;100.00
49377;BME280;35253;34.688;33.040;2023-03-15T00:14:40;100267.78;;;14.02;100.00
49377;BME280;35253;34.688;33.040;2023-03-15T00:17:06;100268.03;;;13.98;100.00
49377;BME280;35253;34.688;33.040;2023-03-15T00:19:31;100262.16;;;14.05;100.00
49377;BME280;35253;34.688;33.040;2023-03-15T00:21:57;100265.94;;;14.02;100.00
49377;BME280;35253;34.688;33.040;2023-03-15T00:24:22;100261.41;;;14.14;100.00
49377;BME280;35253;34.688;33.040;2023-03-15T00:26:48;100261.44;;;13.91;100.00
49377;BME280;35253;34.688;33.040;2023-03-15T00:29:13;100256.56;;;14.08;100.00
49377;BME280;35253;34.688;33.040;2023-03-15T00:31:38;100251.28;;;14.17;100.00
49377;BME280;35253;34.688;33.040;2023-03-15T00:34:04;100254.47;;;14.22;100.00
49377;BME280;35253;34.688;33.040;2023-03-15T00:36:31;100247.28;;;14.34;100.00
49377;BME280;35253;34.688;33.040;2023-03-15T00:38:56;100252.41;;;13.92;100.00
49377;BME280;35253;34.688;33.040;2023-03-15T00:41:22;100239.03;;;14.04;100.00
49377;BME280;35253;34.688;33.040;2023-03-15T00:43:48;100245.81;;;14.19;100.00
49377;BME280;35253;34.688;33.040;2023-03-15T00:46:14;100240.47;;;14.19;100.00
49377;BME280;35253;34.688;33.040;2023-03-15T00:48:39;100246.31;;;14.24;100.00
49377;BME280;35253;34.688;33.040;2023-03-15T00:51:12;100257.63;;;14.27;100.00
49377;BME280;35253;34.688;33.040;2023-03-15T00:53:39;100253.25;;;14.37;100.00
49377;BME280;35253;34.688;33.040;2023-03-15T00:56:06;100251.44;;;14.38;100.00
49377;BME280;35253;34.688;33.040;2023-03-15T00:58:32;100249.34;;;14.41;100.00
49377;BME280;35253;34.688;33.040;2023-03-15T01:00:57;100251.16;;;14.52;100.00
49377;BME280;35253;34.688;33.040;2023-03-15T01:03:23;100251.28;;;14.51;100.00
49377;BME280;35253;34.688;33.040;2023-03-15T01:05:48;100256.38;;;14.54;100.00
49377;BME280;35253;34.688;33.040;2023-03-15T01:08:14;100253.38;;;14.47;100.00
49377;BME280;35253;34.688;33.040;2023-03-15T01:10:39;100256.44;;;14.42;100.00
49377;BME280;35253;34.688;33.040;2023-03-15T01:13:05;100255.19;;;14.47;100.00
49377;BME280;35253;34.688;33.040;2023-03-15T01:15:31;100254.06;;;14.49;100.00
49377;BME280;35253;34.688;33.040;2023-03-15T01:17:56;100257.88;;;14.35;100.00
49377;BME280;35253;34.688;33.040;2023-03-15T01:20:22;100254.56;;;14.54;100.00
49377;BME280;35253;34.688;33.040;2023-03-15T01:22:47;100257.03;;;14.46;100.00
49377;BME280;35253;34.688;33.040;2023-03-15T01:25:13;100260.53;;;14.58;100.00
49377;BME280;35253;34.688;33.040;2023-03-15T01:27:38;100260.91;;;14.53;100.00
49377;BME280;35253;34.688;33.040;2023-03-15T01:30:04;100260.41;;;14.48;100.00
49377;BME280;35253;34.688;33.040;2023-03-15T01:32:30;100264.09;;;14.47;100.00
49377;BME280;35253;34.688;33.040;2023-03-15T01:34:56;100256.75;;;14.49;100.00
49377;BME280;35253;34.688;33.040;2023-03-15T01:37:21;100262.66;;;14.43;100.00
49377;BME280;35253;34.688;33.040;2023-03-15T01:39:49;100254.31;;;14.35;100.00
49377;BME280;35253;34.688;33.040;2023-03-15T01:42:14;100262.66;;;13.98;100.00
49377;BME280;35253;34.688;33.040;2023-03-15T01:44:50;100259.03;;;13.99;100.00
49377;BME280;35253;34.688;33.040;2023-03-15T01:47:16;100259.03;;;13.99;100.00
49377;BME280;35253;34.688;33.040;2023-03-15T01:49:42;100257.19;;;13.89;100.00
49377;BME280;35253;34.688;33.040;2023-03-15T01:52:14;100259.97;;;13.76;100.00
49377;BME280;35253;34.688;33.040;2023-03-15T01:54:46;100262.53;;;13.67;100.00
49377;BME280;35253;34.688;33.040;2023-03-15T01:57:18;100256.19;;;13.79;100.00
49377;BME280;35253;34.688;33.040;2023-03-15T02:00:10;100261.81;;;13.76;100.00
49377;BME280;35253;34.688;33.040;2023-03-15T02:02:50;100273.38;;;13.76;100.00
49377;BME280;35253;34.688;33.040;2023-03-15T02:05:20;100270.69;;;13.87;100.00
49377;BME280;35253;34.688;33.040;2023-03-15T02:07:48;100269.47;;;13.80;100.00
49377;BME280;35253;34.688;33.040;2023-03-15T02:10:29;100277.75;;;13.66;100.00
49377;BME280;35253;34.688;33.040;2023-03-15T02:12:55;100282.84;;;13.69;100.00
49377;BME280;35253;34.688;33.040;2023-03-15T02:15:22;100284.34;;;13.73;100.00
49377;BME280;35253;34.688;33.040;2023-03-15T02:17:48;100285.56;;;13.80;100.00
49377;BME280;35253;34.688;33.040;2023-03-15T02:20:29;100279.22;;;13.92;100.00
49377;BME280;35253;34.688;33.040;2023-03-15T02:23:01;100276.28;;;13.95;100.00
49377;BME280;35253;34.688;33.040;2023-03-15T02:28:12;100291.03;;;13.68;100.00
49377;BME280;35253;34.688;33.040;2023-03-15T02:30:38;100290.44;;;13.86;100.00
49377;BME280;35253;34.688;33.040;2023-03-15T02:33:04;100294.31;;;13.82;100.00
49377;BME280;35253;34.688;33.040;2023-03-15T02:35:31;100291.28;;;13.98;100.00
49377;BME280;35253;34.688;33.040;2023-03-15T02:37:57;100290.78;;;14.04;100.00
49377;BME280;35253;34.688;33.040;2023-03-15T02:40:24;100290.41;;;14.09;100.00
49377;BME280;35253;34.688;33.040;2023-03-15T02:42:55;100292.13;;;14.10;100.00
49377;BME280;35253;34.688;33.040;2023-03-15T02:45:22;100295.69;;;14.21;100.00
49377;BME280;35253;34.688;33.040;2023-03-15T02:47:48;100301.38;;;14.28;100.00
49377;BME280;35253;34.688;33.040;2023-03-15T02:50:14;100309.91;;;14.33;100.00
49377;BME280;35253;34.688;33.040;2023-03-15T02:52:39;100313.81;;;14.29;100.00
49377;BME280;35253;34.688;33.040;2023-03-15T02:55:05;100310.19;;;14.08;100.00
49377;BME280;35253;34.688;33.040;2023-03-15T02:57:30;100308.72;;;14.04;100.00
49377;BME280;35253;34.688;33.040;2023-03-15T02:59:56;100322.13;;;14.04;100.00
49377;BME280;35253;34.688;33.040;2023-03-15T03:02:22;100319.91;;;13.97;100.00
49377;BME280;35253;34.688;33.040;2023-03-15T03:04:48;100325.38;;;13.96;100.00
49377;BME280;35253;34.688;33.040;2023-03-15T03:07:13;100327.00;;;13.98;100.00
49377;BME280;35253;34.688;33.040;2023-03-15T03:09:39;100333.31;;;13.97;100.00
49377;BME280;35253;34.688;33.040;2023-03-15T03:12:05;100328.31;;;13.93;100.00
49377;BME280;35253;34.688;33.040;2023-03-15T03:14:30;100340.75;;;13.94;100.00
49377;BME280;35253;34.688;33.040;2023-03-15T03:16:56;100334.78;;;13.90;100.00
49377;BME280;35253;34.688;33.040;2023-03-15T03:19:21;100344.25;;;13.83;100.00
49377;BME280;35253;34.688;33.040;2023-03-15T03:21:52;100349.88;;;13.80;100.00
49377;BME280;35253;34.688;33.040;2023-03-15T03:24:18;100352.31;;;13.94;100.00
49377;BME280;35253;34.688;33.040;2023-03-15T03:26:44;100351.56;;;13.92;100.00
49377;BME280;35253;34.688;33.040;2023-03-15T03:29:12;100348.66;;;13.95;100.00
49377;BME280;35253;34.688;33.040;2023-03-15T03:31:41;100352.69;;;13.90;100.00
49377;BME280;35253;34.688;33.040;2023-03-15T03:34:06;100350.47;;;13.84;100.00
49377;BME280;35253;34.688;33.040;2023-03-15T03:36:33;100354.63;;;13.88;100.00
49377;BME280;35253;34.688;33.040;2023-03-15T03:38:59;100365.47;;;13.86;100.00
49377;BME280;35253;34.688;33.040;2023-03-15T03:41:25;100365.53;;;13.74;100.00
49377;BME280;35253;34.688;33.040;2023-03-15T03:43:51;100364.78;;;13.61;100.00
49377;BME280;35253;34.688;33.040;2023-03-15T03:46:17;100370.28;;;13.70;100.00
49377;BME280;35253;34.688;33.040;2023-03-15T03:48:42;100370.63;;;13.54;100.00
49377;BME280;35253;34.688;33.040;2023-03-15T03:51:08;100373.56;;;13.63;100.00
49377;BME280;35253;34.688;33.040;2023-03-15T03:53:33;100361.75;;;13.65;100.00
49377;BME280;35253;34.688;33.040;2023-03-15T03:55:58;100364.84;;;13.13;100.00
49377;BME280;35253;34.688;33.040;2023-03-15T03:58:28;100366.06;;;13.44;100.00
49377;BME280;35253;34.688;33.040;2023-03-15T04:00:53;100366.34;;;13.52;100.00
49377;BME280;35253;34.688;33.040;2023-03-15T04:03:19;100374.63;;;13.49;100.00
49377;BME280;35253;34.688;33.040;2023-03-15T04:05:58;100379.25;;;13.47;100.00
49377;BME280;35253;34.688;33.040;2023-03-15T04:08:24;100383.84;;;13.45;100.00
49377;BME280;35253;34.688;33.040;2023-03-15T04:10:51;100382.66;;;13.49;100.00
49377;BME280;35253;34.688;33.040;2023-03-15T04:13:17;100374.16;;;13.55;100.00
49377;BME280;35253;34.688;33.040;2023-03-15T04:15:43;100385.59;;;13.57;100.00
49377;BME280;35253;34.688;33.040;2023-03-15T04:18:08;100390.00;;;13.58;100.00
49377;BME280;35253;34.688;33.040;2023-03-15T04:20:34;100394.13;;;13.62;100.00
49377;BME280;35253;34.688;33.040;2023-03-15T04:22:59;100390.88;;;13.70;100.00
49377;BME280;35253;34.688;33.040;2023-03-15T04:25:25;100396.63;;;13.76;100.00
49377;BME280;35253;34.688;33.040;2023-03-15T04:27:51;100399.09;;;13.90;100.00
49377;BME280;35253;34.688;33.040;2023-03-15T04:30:26;100397.25;;;13.91;100.00
49377;BME280;35253;34.688;33.040;2023-03-15T04:32:55;100403.00;;;14.09;100.00
49377;BME280;35253;34.688;33.040;2023-03-15T04:35:24;100399.59;;;14.07;100.00
49377;BME280;35253;34.688;33.040;2023-03-15T04:37:50;100407.06;;;14.25;100.00
49377;BME280;35253;34.688;33.040;2023-03-15T04:40:16;100413.25;;;14.15;100.00
49377;BME280;35253;34.688;33.040;2023-03-15T04:42:41;100414.53;;;14.44;100.00
49377;BME280;35253;34.688;33.040;2023-03-15T04:45:07;100418.44;;;14.40;100.00
49377;BME280;35253;34.688;33.040;2023-03-15T04:47:32;100415.78;;;14.51;100.00
49377;BME280;35253;34.688;33.040;2023-03-15T04:49:58;100422.38;;;14.01;100.00
49377;BME280;35253;34.688;33.040;2023-03-15T04:52:23;100418.59;;;13.58;100.00
49377;BME280;35253;34.688;33.040;2023-03-15T04:54:49;100424.63;;;13.48;100.00
49377;BME280;35253;34.688;33.040;2023-03-15T04:57:14;100421.50;;;14.00;100.00
49377;BME280;35253;34.688;33.040;2023-03-15T04:59:40;100428.53;;;14.25;100.00
49377;BME280;35253;34.688;33.040;2023-03-15T05:02:05;100423.81;;;14.40;100.00
49377;BME280;35253;34.688;33.040;2023-03-15T05:04:31;100424.44;;;14.55;100.00
49377;BME280;35253;34.688;33.040;2023-03-15T05:06:56;100417.72;;;14.82;100.00
49377;BME280;35253;34.688;33.040;2023-03-15T05:09:21;100407.69;;;14.84;100.00
49377;BME280;35253;34.688;33.040;2023-03-15T05:11:47;100415.53;;;14.54;100.00
49377;BME280;35253;34.688;33.040;2023-03-15T05:14:13;100411.97;;;14.87;100.00
49377;BME280;35253;34.688;33.040;2023-03-15T05:16:38;100411.19;;;15.07;100.00
49377;BME280;35253;34.688;33.040;2023-03-15T05:19:04;100415.66;;;15.29;100.00
49377;BME280;35253;34.688;33.040;2023-03-15T05:21:29;100409.13;;;15.43;100.00
49377;BME280;35253;34.688;33.040;2023-03-15T05:23:56;100410.97;;;15.53;100.00
49377;BME280;35253;34.688;33.040;2023-03-15T05:26:22;100404.25;;;15.37;100.00
49377;BME280;35253;34.688;33.040;2023-03-15T05:28:48;100408.28;;;15.53;100.00
49377;BME280;35253;34.688;33.040;2023-03-15T05:31:16;100406.28;;;15.55;100.00
49377;BME280;35253;34.688;33.040;2023-03-15T05:33:42;100406.88;;;15.59;100.00
49377;BME280;35253;34.688;33.040;2023-03-15T05:36:11;100410.69;;;15.56;100.00
49377;BME280;35253;34.688;33.040;2023-03-15T05:38:39;100407.47;;;15.62;100.00
49377;BME280;35253;34.688;33.040;2023-03-15T05:41:08;100407.78;;;15.48;100.00
49377;BME280;35253;34.688;33.040;2023-03-15T05:43:33;100411.00;;;15.63;100.00
49377;BME280;35253;34.688;33.040;2023-03-15T05:45:59;100411.28;;;15.81;100.00
49377;BME280;35253;34.688;33.040;2023-03-15T05:48:27;100414.66;;;15.94;100.00
49377;BME280;35253;34.688;33.040;2023-03-15T05:50:52;100411.31;;;16.01;100.00
49377;BME280;35253;34.688;33.040;2023-03-15T05:53:17;100410.47;;;16.01;100.00
49377;BME280;35253;34.688;33.040;2023-03-15T05:55:43;100413.06;;;16.12;100.00
49377;BME280;35253;34.688;33.040;2023-03-15T05:58:08;100418.50;;;16.21;100.00
49377;BME280;35253;34.688;33.040;2023-03-15T06:00:34;100425.31;;;16.26;100.00
49377;BME280;35253;34.688;33.040;2023-03-15T06:02:59;100420.53;;;16.29;100.00
49377;BME280;35253;34.688;33.040;2023-03-15T06:05:25;100429.06;;;16.34;100.00
49377;BME280;35253;34.688;33.040;2023-03-15T06:07:50;100422.28;;;16.40;100.00
49377;BME280;35253;34.688;33.040;2023-03-15T06:10:16;100428.53;;;16.40;100.00
49377;BME280;35253;34.688;33.040;2023-03-15T06:12:41;100428.72;;;16.48;100.00
49377;BME280;35253;34.688;33.040;2023-03-15T06:15:08;100426.69;;;16.61;100.00
49377;BME280;35253;34.688;33.040;2023-03-15T06:17:34;100429.69;;;16.47;100.00
49377;BME280;35253;34.688;33.040;2023-03-15T06:19:59;100433.63;;;16.43;100.00
49377;BME280;35253;34.688;33.040;2023-03-15T06:22:25;100432.06;;;16.20;100.00
49377;BME280;35253;34.688;33.040;2023-03-15T06:24:51;100433.47;;;16.35;100.00
49377;BME280;35253;34.688;33.040;2023-03-15T06:27:16;100434.91;;;16.18;100.00
49377;BME280;35253;34.688;33.040;2023-03-15T06:29:46;100446.25;;;16.22;100.00
49377;BME280;35253;34.688;33.040;2023-03-15T06:32:11;100446.25;;;16.22;100.00
49377;BME280;35253;34.688;33.040;2023-03-15T06:34:37;100441.06;;;16.30;100.00
49377;BME280;35253;34.688;33.040;2023-03-15T06:37:02;100440.09;;;16.31;100.00
49377;BME280;35253;34.688;33.040;2023-03-15T06:39:28;100439.53;;;16.37;100.00
49377;BME280;35253;34.688;33.040;2023-03-15T06:41:54;100441.19;;;16.49;100.00
49377;BME280;35253;34.688;33.040;2023-03-15T06:44:22;100442.63;;;16.53;100.00
49377;BME280;35253;34.688;33.040;2023-03-15T06:46:47;100447.66;;;16.67;100.00
49377;BME280;35253;34.688;33.040;2023-03-15T06:49:14;100444.25;;;16.65;100.00
49377;BME280;35253;34.688;33.040;2023-03-15T06:51:39;100445.16;;;16.76;100.00
49377;BME280;35253;34.688;33.040;2023-03-15T06:54:06;100440.03;;;16.73;100.00
49377;BME280;35253;34.688;33.040;2023-03-15T06:56:32;100449.97;;;16.82;100.00
49377;BME280;35253;34.688;33.040;2023-03-15T06:59:01;100444.88;;;16.79;100.00
49377;BME280;35253;34.688;33.040;2023-03-15T07:01:26;100437.38;;;16.82;100.00
49377;BME280;35253;34.688;33.040;2023-03-15T07:03:52;100439.09;;;16.83;100.00
49377;BME280;35253;34.688;33.040;2023-03-15T07:06:17;100437.03;;;17.06;100.00
49377;BME280;35253;34.688;33.040;2023-03-15T07:08:43;100437.88;;;16.97;100.00
49377;BME280;35253;34.688;33.040;2023-03-15T07:11:08;100433.91;;;17.01;100.00
49377;BME280;35253;34.688;33.040;2023-03-15T07:13:34;100428.53;;;17.10;100.00
49377;BME280;35253;34.688;33.040;2023-03-15T07:15:59;100430.09;;;17.13;100.00
49377;BME280;35253;34.688;33.040;2023-03-15T07:18:25;100430.59;;;17.37;100.00
49377;BME280;35253;34.688;33.040;2023-03-15T07:20:57;100426.88;;;17.38;100.00
49377;BME280;35253;34.688;33.040;2023-03-15T07:23:23;100437.63;;;17.19;100.00
49377;BME280;35253;34.688;33.040;2023-03-15T07:25:48;100438.50;;;17.20;100.00
49377;BME280;35253;34.688;33.040;2023-03-15T07:28:14;100437.06;;;17.25;100.00
49377;BME280;35253;34.688;33.040;2023-03-15T07:30:39;100427.00;;;17.18;100.00
49377;BME280;35253;34.688;33.040;2023-03-15T07:33:05;100427.44;;;17.32;100.00
49377;BME280;35253;34.688;33.040;2023-03-15T07:35:30;100429.03;;;17.44;100.00
49377;BME280;35253;34.688;33.040;2023-03-15T07:37:55;100423.91;;;17.32;100.00
49377;BME280;35253;34.688;33.040;2023-03-15T07:40:21;100417.50;;;17.42;100.00
49377;BME280;35253;34.688;33.040;2023-03-15T07:42:47;100427.63;;;17.50;100.00
49377;BME280;35253;34.688;33.040;2023-03-15T07:45:13;100422.78;;;17.53;100.00
49377;BME280;35253;34.688;33.040;2023-03-15T07:47:39;100424.78;;;17.42;100.00
49377;BME280;35253;34.688;33.040;2023-03-15T07:50:05;100432.41;;;17.46;100.00
49377;BME280;35253;34.688;33.040;2023-03-15T07:52:31;100426.31;;;17.44;100.00
49377;BME280;35253;34.688;33.040;2023-03-15T07:54:57;100424.94;;;17.60;100.00
49377;BME280;35253;34.688;33.040;2023-03-15T07:57:23;100424.94;;;17.60;100.00
49377;BME280;35253;34.688;33.040;2023-03-15T07:59:48;100438.22;;;17.51;100.00
49377;BME280;35253;34.688;33.040;2023-03-15T08:02:14;100432.84;;;17.51;100.00
49377;BME280;35253;34.688;33.040;2023-03-15T08:04:39;100421.81;;;17.54;100.00
49377;BME280;35253;34.688;33.040;2023-03-15T08:07:05;100430.06;;;17.63;100.00
49377;BME280;35253;34.688;33.040;2023-03-15T08:09:31;100433.75;;;17.62;100.00
49377;BME280;35253;34.688;33.040;2023-03-15T08:11:58;100432.59;;;17.54;100.00
49377;BME280;35253;34.688;33.040;2023-03-15T08:14:24;100435.41;;;17.53;100.00
49377;BME280;35253;34.688;33.040;2023-03-15T08:16:50;100436.88;;;17.67;100.00
49377;BME280;35253;34.688;33.040;2023-03-15T08:19:15;100441.97;;;17.70;100.00
49377;BME280;35253;34.688;33.040;2023-03-15T08:21:41;100447.91;;;17.54;100.00
49377;BME280;35253;34.688;33.040;2023-03-15T08:24:09;100440.94;;;17.51;100.00
49377;BME280;35253;34.688;33.040;2023-03-15T08:26:35;100450.06;;;17.70;100.00
49377;BME280;35253;34.688;33.040;2023-03-15T08:29:00;100454.16;;;17.74;100.00
49377;BME280;35253;34.688;33.040;2023-03-15T08:31:26;100438.41;;;17.79;100.00
49377;BME280;35253;34.688;33.040;2023-03-15T08:33:52;100441.13;;;17.79;100.00
49377;BME280;35253;34.688;33.040;2023-03-15T08:36:18;100441.69;;;17.73;100.00
49377;BME280;35253;34.688;33.040;2023-03-15T08:38:43;100438.72;;;17.85;100.00
49377;BME280;35253;34.688;33.040;2023-03-15T08:41:09;100432.72;;;18.01;100.00
49377;BME280;35253;34.688;33.040;2023-03-15T08:43:34;100449.63;;;17.84;100.00
49377;BME280;35253;34.688;33.040;2023-03-15T08:46:00;100448.22;;;17.89;100.00
49377;BME280;35253;34.688;33.040;2023-03-15T08:48:25;100456.16;;;18.10;100.00
49377;BME280;35253;34.688;33.040;2023-03-15T08:50:51;100460.56;;;18.11;100.00
49377;BME280;35253;34.688;33.040;2023-03-15T08:53:16;100449.47;;;17.95;100.00
49377;BME280;35253;34.688;33.040;2023-03-15T08:55:42;100467.66;;;17.83;100.00
49377;BME280;35253;34.688;33.040;2023-03-15T08:58:08;100451.03;;;17.78;100.00
49377;BME280;35253;34.688;33.040;2023-03-15T09:00:33;100452.34;;;17.84;100.00
49377;BME280;35253;34.688;33.040;2023-03-15T09:02:59;100455.03;;;18.03;100.00
49377;BME280;35253;34.688;33.040;2023-03-15T09:05:25;100459.44;;;17.94;100.00
49377;BME280;35253;34.688;33.040;2023-03-15T09:07:51;100450.19;;;17.97;100.00
49377;BME280;35253;34.688;33.040;2023-03-15T09:10:19;100456.28;;;17.99;100.00
49377;BME280;35253;34.688;33.040;2023-03-15T09:12:47;100448.34;;;18.07;100.00
49377;BME280;35253;34.688;33.040;2023-03-15T09:15:13;100441.91;;;18.27;100.00
49377;BME280;35253;34.688;33.040;2023-03-15T09:17:39;100448.81;;;18.59;100.00
49377;BME280;35253;34.688;33.040;2023-03-15T09:20:05;100454.06;;;18.97;100.00
49377;BME280;35253;34.688;33.040;2023-03-15T09:22:38;100439.16;;;18.93;100.00
49377;BME280;35253;34.688;33.040;2023-03-15T09:25:04;100438.47;;;18.91;100.00
49377;BME280;35253;34.688;33.040;2023-03-15T09:27:29;100437.78;;;19.07;100.00
49377;BME280;35253;34.688;33.040;2023-03-15T09:29:56;100448.84;;;18.86;100.00
49377;BME280;35253;34.688;33.040;2023-03-15T09:32:21;100433.91;;;18.55;100.00
49377;BME280;35253;34.688;33.040;2023-03-15T09:34:47;100448.41;;;18.54;100.00
49377;BME280;35253;34.688;33.040;2023-03-15T09:37:12;100447.56;;;18.53;100.00
49377;BME280;35253;34.688;33.040;2023-03-15T09:39:37;100443.00;;;18.54;100.00
49377;BME280;35253;34.688;33.040;2023-03-15T09:42:03;100436.94;;;18.79;100.00
49377;BME280;35253;34.688;33.040;2023-03-15T09:44:40;100434.78;;;18.55;100.00
49377;BME280;35253;34.688;33.040;2023-03-15T09:47:12;100434.19;;;18.52;100.00
49377;BME280;35253;34.688;33.040;2023-03-15T09:50:00;100440.31;;;18.90;100.00
49377;BME280;35253;34.688;33.040;2023-03-15T09:52:40;100442.84;;;18.92;100.00
49377;BME280;35253;34.688;33.040;2023-03-15T09:55:27;100437.28;;;18.66;100.00
49377;BME280;35253;34.688;33.040;2023-03-15T09:58:00;100426.41;;;18.85;100.00
49377;BME280;35253;34.688;33.040;2023-03-15T10:00:37;100430.22;;;19.10;100.00
49377;BME280;35253;34.688;33.040;2023-03-15T10:03:04;100420.81;;;19.14;100.00
49377;BME280;35253;34.688;33.040;2023-03-15T10:05:40;100424.09;;;19.35;100.00
49377;BME280;35253;34.688;33.040;2023-03-15T10:08:16;100418.69;;;18.90;100.00
49377;BME280;35253;34.688;33.040;2023-03-15T10:10:46;100427.53;;;18.36;100.00
49377;BME280;35253;34.688;33.040;2023-03-15T10:18:46;100417.25;;;18.03;100.00
49377;BME280;35253;34.688;33.040;2023-03-15T10:24:27;100417.72;;;18.35;100.00
49377;BME280;35253;34.688;33.040;2023-03-15T10:26:54;100413.53;;;18.04;100.00
49377;BME280;35253;34.688;33.040;2023-03-15T10:29:23;100405.75;;;18.11;100.00
49377;BME280;35253;34.688;33.040;2023-03-15T10:31:50;100407.41;;;18.21;100.00
49377;BME280;35253;34.688;33.040;2023-03-15T10:34:17;100410.59;;;18.54;100.00
49377;BME280;35253;34.688;33.040;2023-03-15T10:36:44;100396.25;;;18.43;100.00
49377;BME280;35253;34.688;33.040;2023-03-15T10:39:09;100405.47;;;18.60;100.00
49377;BME280;35253;34.688;33.040;2023-03-15T10:44:05;100395.97;;;18.83;100.00
49377;BME280;35253;34.688;33.040;2023-03-15T10:46:31;100407.75;;;18.65;100.00
49377;BME280;35253;34.688;33.040;2023-03-15T10:48:59;100386.56;;;18.87;100.00
49377;BME280;35253;34.688;33.040;2023-03-15T10:51:26;100390.09;;;19.15;100.00
49377;BME280;35253;34.688;33.040;2023-03-15T10:53:52;100387.00;;;19.10;100.00
49377;BME280;35253;34.688;33.040;2023-03-15T10:56:22;100391.81;;;19.16;100.00
49377;BME280;35253;34.688;33.040;2023-03-15T10:58:48;100394.75;;;19.41;100.00
49377;BME280;35253;34.688;33.040;2023-03-15T11:01:27;100380.22;;;19.42;100.00
49377;BME280;35253;34.688;33.040;2023-03-15T11:06:31;100372.75;;;19.53;100.00
49377;BME280;35253;34.688;33.040;2023-03-15T11:09:08;100376.03;;;20.00;100.00
49377;BME280;35253;34.688;33.040;2023-03-15T11:14:18;100368.19;;;20.23;100.00
49377;BME280;35253;34.688;33.040;2023-03-15T11:16:51;100378.53;;;19.41;100.00
49377;BME280;35253;34.688;33.040;2023-03-15T11:19:18;100379.97;;;19.88;100.00
49377;BME280;35253;34.688;33.040;2023-03-15T11:21:45;100389.63;;;20.08;100.00
49377;BME280;35253;34.688;33.040;2023-03-15T11:26:49;100379.50;;;19.93;100.00
49377;BME280;35253;34.688;33.040;2023-03-15T11:31:49;100389.13;;;20.31;100.00
49377;BME280;35253;34.688;33.040;2023-03-15T11:34:20;100379.31;;;19.86;100.00
49377;BME280;35253;34.688;33.040;2023-03-15T11:36:50;100388.75;;;19.82;100.00
49377;BME280;35253;34.688;33.040;2023-03-15T11:39:18;100381.88;;;20.13;100.00
49377;BME280;35253;34.688;33.040;2023-03-15T11:41:52;100379.78;;;20.07;100.00
49377;BME280;35253;34.688;33.040;2023-03-15T11:44:24;100370.00;;;19.89;100.00
49377;BME280;35253;34.688;33.040;2023-03-15T11:46:56;100387.91;;;20.07;100.00
49377;BME280;35253;34.688;33.040;2023-03-15T11:49:32;100384.28;;;20.24;100.00
49377;BME280;35253;34.688;33.040;2023-03-15T11:51:59;100370.72;;;20.16;100.00
49377;BME280;35253;34.688;33.040;2023-03-15T11:54:27;100364.66;;;19.97;100.00
49377;BME280;35253;34.688;33.040;2023-03-15T11:57:00;100374.75;;;20.12;100.00
49377;BME280;35253;34.688;33.040;2023-03-15T11:59:33;100369.34;;;20.38;100.00
49377;BME280;35253;34.688;33.040;2023-03-15T12:09:38;100346.69;;;20.13;100.00
49377;BME280;35253;34.688;33.040;2023-03-15T12:14:48;100343.88;;;20.49;100.00
49377;BME280;35253;34.688;33.040;2023-03-15T12:19:57;100348.09;;;20.51;100.00
49377;BME280;35253;34.688;33.040;2023-03-15T12:22:23;100358.03;;;20.17;100.00
49377;BME280;35253;34.688;33.040;2023-03-15T12:24:51;100356.56;;;20.22;100.00
49377;BME280;35253;34.688;33.040;2023-03-15T12:27:17;100357.44;;;20.05;100.00
49377;BME280;35253;34.688;33.040;2023-03-15T12:29:44;100376.66;;;19.94;100.00
49377;BME280;35253;34.688;33.040;2023-03-15T12:32:11;100382.59;;;20.23;100.00
49377;BME280;35253;34.688;33.040;2023-03-15T12:37:07;100396.06;;;19.90;100.00
49377;BME280;35253;34.688;33.040;2023-03-15T12:39:38;100389.59;;;19.83;100.00
49377;BME280;35253;34.688;33.040;2023-03-15T12:42:04;100375.75;;;19.68;100.00
49377;BME280;35253;34.688;33.040;2023-03-15T12:44:40;100364.94;;;19.32;100.00
49377;BME280;35253;34.688;33.040;2023-03-15T12:47:09;100359.16;;;19.45;100.00
49377;BME280;35253;34.688;33.040;2023-03-15T12:49:39;100363.81;;;19.96;100.00
49377;BME280;35253;34.688;33.040;2023-03-15T12:54:56;100368.03;;;19.73;100.00
49377;BME280;35253;34.688;33.040;2023-03-15T12:57:26;100349.56;;;19.68;100.00
49377;BME280;35253;34.688;33.040;2023-03-15T13:02:22;100363.81;;;19.96;100.00
49377;BME280;35253;34.688;33.040;2023-03-15T13:04:48;100371.84;;;19.88;100.00
49377;BME280;35253;34.688;33.040;2023-03-15T13:07:27;100374.41;;;20.15;100.00
49377;BME280;35253;34.688;33.040;2023-03-15T13:15:16;100387.16;;;19.97;100.00
49377;BME280;35253;34.688;33.040;2023-03-15T13:17:47;100386.09;;;19.90;100.00
49377;BME280;35253;34.688;33.040;2023-03-15T13:20:21;100389.84;;;20.41;100.00